sensor_id;sensor_type;location;lat;lon;timestamp;temperature;humidity
42261;DHT22;27926;48.062;7.474;2023-05-10T00:00:25;14.20;99.90
42261;DHT22;27926;48.062;7.474;2023-05-10T00:02:50;14.20;99.90
42261;DHT22;27926;48.062;7.474;2023-05-10T00:05:15;14.10;99.90
42261;DHT22;27926;48.062;7.474;2023-05-10T00:07:39;14.10;99.90
42261;DHT22;27926;48.062;7.474;2023-05-10T00:10:04;14.10;99.90
42261;DHT22;27926;48.062;7.474;2023-05-10T00:12:29;14.00;99.90
42261;DHT22;27926;48.062;7.474;2023-05-10T00:14:54;13.90;99.90
42261;DHT22;27926;48.062;7.474;2023-05-10T00:17:18;13.80;99.90
42261;DHT22;27926;48.062;7.474;2023-05-10T00:19:43;13.80;99.90
42261;DHT22;27926;48.062;7.474;2023-05-10T00:22:07;13.80;99.90
42261;DHT22;27926;48.062;7.474;2023-05-10T00:24:32;13.70;99.90
42261;DHT22;27926;48.062;7.474;2023-05-10T00:26:56;13.70;99.90
42261;DHT22;27926;48.062;7.474;2023-05-10T00:29:21;13.70;99.90
42261;DHT22;27926;48.062;7.474;2023-05-10T00:31:46;13.80;99.90
42261;DHT22;27926;48.062;7.474;2023-05-10T00:34:10;13.80;99.90
42261;DHT22;27926;48.062;7.474;2023-05-10T00:36:35;13.80;99.90
42261;DHT22;27926;48.062;7.474;2023-05-10T00:38:59;13.70;99.90
42261;DHT22;27926;48.062;7.474;2023-05-10T00:41:24;13.70;99.90
42261;DHT22;27926;48.062;7.474;2023-05-10T00:43:49;13.70;99.90
42261;DHT22;27926;48.062;7.474;2023-05-10T00:46:14;13.60;99.90
42261;DHT22;27926;48.062;7.474;2023-05-10T00:48:39;13.60;99.90
42261;DHT22;27926;48.062;7.474;2023-05-10T00:51:04;13.60;99.90
42261;DHT22;27926;48.062;7.474;2023-05-10T00:53:33;13.60;99.90
42261;DHT22;27926;48.062;7.474;2023-05-10T00:55:59;13.60;99.90
42261;DHT22;27926;48.062;7.474;2023-05-10T00:58:24;13.60;99.90
42261;DHT22;27926;48.062;7.474;2023-05-10T01:00:52;13.60;99.90
42261;DHT22;27926;48.062;7.474;2023-05-10T01:03:17;13.60;99.90
42261;DHT22;27926;48.062;7.474;2023-05-10T01:05:41;13.60;99.90
42261;DHT22;27926;48.062;7.474;2023-05-10T01:08:06;13.60;99.90
42261;DHT22;27926;48.062;7.474;2023-05-10T01:10:31;13.60;99.90
42261;DHT22;27926;48.062;7.474;2023-05-10T01:12:56;13.60;99.90
42261;DHT22;27926;48.062;7.474;2023-05-10T01:15:21;13.60;99.90
42261;DHT22;27926;48.062;7.474;2023-05-10T01:17:47;13.60;99.90
42261;DHT22;27926;48.062;7.474;2023-05-10T01:20:12;13.60;99.90
42261;DHT22;27926;48.062;7.474;2023-05-10T01:31:13;13.40;99.90
42261;DHT22;27926;48.062;7.474;2023-05-10T01:33:55;13.40;99.90
42261;DHT22;27926;48.062;7.474;2023-05-10T01:36:26;13.40;99.90
42261;DHT22;27926;48.062;7.474;2023-05-10T01:44:26;13.20;99.90
42261;DHT22;27926;48.062;7.474;2023-05-10T01:47:01;13.20;99.90
42261;DHT22;27926;48.062;7.474;2023-05-10T01:49:32;13.20;99.90
42261;DHT22;27926;48.062;7.474;2023-05-10T01:52:09;13.20;99.90
42261;DHT22;27926;48.062;7.474;2023-05-10T01:54:35;13.30;99.90
42261;DHT22;27926;48.062;7.474;2023-05-10T01:57:05;13.30;99.90
42261;DHT22;27926;48.062;7.474;2023-05-10T01:59:34;13.30;99.90
42261;DHT22;27926;48.062;7.474;2023-05-10T02:02:06;13.30;99.90
42261;DHT22;27926;48.062;7.474;2023-05-10T02:04:31;13.30;99.90
42261;DHT22;27926;48.062;7.474;2023-05-10T02:06:57;13.30;99.90
42261;DHT22;27926;48.062;7.474;2023-05-10T02:09:23;13.30;99.90
42261;DHT22;27926;48.062;7.474;2023-05-10T02:11:50;13.30;99.90
42261;DHT22;27926;48.062;7.474;2023-05-10T02:14:15;13.30;99.90
42261;DHT22;27926;48.062;7.474;2023-05-10T02:16:41;13.30;99.90
42261;DHT22;27926;48.062;7.474;2023-05-10T02:19:07;13.30;99.90
42261;DHT22;27926;48.062;7.474;2023-05-10T02:21:33;13.30;99.90
42261;DHT22;27926;48.062;7.474;2023-05-10T02:23:59;13.30;99.90
42261;DHT22;27926;48.062;7.474;2023-05-10T02:26:26;13.20;99.90
42261;DHT22;27926;48.062;7.474;2023-05-10T02:28:53;13.20;99.90
42261;DHT22;27926;48.062;7.474;2023-05-10T02:31:19;13.20;99.90
42261;DHT22;27926;48.062;7.474;2023-05-10T02:33:45;13.20;99.90
42261;DHT22;27926;48.062;7.474;2023-05-10T02:36:10;13.20;99.90
42261;DHT22;27926;48.062;7.474;2023-05-10T02:38:36;13.20;99.90
42261;DHT22;27926;48.062;7.474;2023-05-10T02:41:02;13.20;99.90
42261;DHT22;27926;48.062;7.474;2023-05-10T02:43:30;13.20;99.90
42261;DHT22;27926;48.062;7.474;2023-05-10T02:45:56;13.20;99.90
42261;DHT22;27926;48.062;7.474;2023-05-10T02:48:20;13.20;99.90
42261;DHT22;27926;48.062;7.474;2023-05-10T02:50:46;13.20;99.90
42261;DHT22;27926;48.062;7.474;2023-05-10T02:53:18;13.30;99.90
42261;DHT22;27926;48.062;7.474;2023-05-10T02:55:49;13.20;99.90
42261;DHT22;27926;48.062;7.474;2023-05-10T02:58:14;13.20;99.90
42261;DHT22;27926;48.062;7.474;2023-05-10T03:00:39;13.20;99.90
42261;DHT22;27926;48.062;7.474;2023-05-10T03:03:04;13.20;99.90
42261;DHT22;27926;48.062;7.474;2023-05-10T03:05:28;13.10;99.90
42261;DHT22;27926;48.062;7.474;2023-05-10T03:07:53;13.10;99.90
42261;DHT22;27926;48.062;7.474;2023-05-10T03:10:19;13.10;99.90
42261;DHT22;27926;48.062;7.474;2023-05-10T03:12:47;13.10;99.90
42261;DHT22;27926;48.062;7.474;2023-05-10T03:15:25;13.00;99.90
42261;DHT22;27926;48.062;7.474;2023-05-10T03:20:29;13.00;99.90
42261;DHT22;27926;48.062;7.474;2023-05-10T03:23:02;13.00;99.90
42261;DHT22;27926;48.062;7.474;2023-05-10T03:25:29;13.00;99.90
42261;DHT22;27926;48.062;7.474;2023-05-10T03:27:56;12.90;99.90
42261;DHT22;27926;48.062;7.474;2023-05-10T03:30:22;12.90;99.90
42261;DHT22;27926;48.062;7.474;2023-05-10T03:32:47;12.80;99.90
42261;DHT22;27926;48.062;7.474;2023-05-10T03:35:12;12.80;99.90
42261;DHT22;27926;48.062;7.474;2023-05-10T03:37:40;12.70;99.90
42261;DHT22;27926;48.062;7.474;2023-05-10T03:40:05;12.70;99.90
42261;DHT22;27926;48.062;7.474;2023-05-10T03:42:30;12.70;99.90
42261;DHT22;27926;48.062;7.474;2023-05-10T03:44:55;12.60;99.90
42261;DHT22;27926;48.062;7.474;2023-05-10T03:47:19;12.60;99.90
42261;DHT22;27926;48.062;7.474;2023-05-10T03:49:44;12.60;99.90
42261;DHT22;27926;48.062;7.474;2023-05-10T03:52:08;12.60;99.90
42261;DHT22;27926;48.062;7.474;2023-05-10T03:54:33;12.60;99.90
42261;DHT22;27926;48.062;7.474;2023-05-10T03:56:57;12.60;99.90
42261;DHT22;27926;48.062;7.474;2023-05-10T03:59:22;12.50;99.90
42261;DHT22;27926;48.062;7.474;2023-05-10T04:01:47;12.60;99.90
42261;DHT22;27926;48.062;7.474;2023-05-10T04:04:11;12.50;99.90
42261;DHT22;27926;48.062;7.474;2023-05-10T04:06:37;12.70;99.90
42261;DHT22;27926;48.062;7.474;2023-05-10T04:09:02;12.60;99.90
42261;DHT22;27926;48.062;7.474;2023-05-10T04:11:28;12.60;99.90
42261;DHT22;27926;48.062;7.474;2023-05-10T04:13:53;12.70;99.90
42261;DHT22;27926;48.062;7.474;2023-05-10T04:16:17;12.50;99.90
42261;DHT22;27926;48.062;7.474;2023-05-10T04:18:42;12.60;99.90
42261;DHT22;27926;48.062;7.474;2023-05-10T04:21:13;12.60;99.90
42261;DHT22;27926;48.062;7.474;2023-05-10T04:23:37;12.20;99.90
42261;DHT22;27926;48.062;7.474;2023-05-10T04:26:02;12.60;99.90
42261;DHT22;27926;48.062;7.474;2023-05-10T04:28:27;12.60;99.90
42261;DHT22;27926;48.062;7.474;2023-05-10T04:30:51;12.70;99.90
42261;DHT22;27926;48.062;7.474;2023-05-10T04:33:16;12.60;99.90
42261;DHT22;27926;48.062;7.474;2023-05-10T04:35:41;12.60;99.90
42261;DHT22;27926;48.062;7.474;2023-05-10T04:38:05;12.60;99.90
42261;DHT22;27926;48.062;7.474;2023-05-10T04:40:30;12.60;99.90
42261;DHT22;27926;48.062;7.474;2023-05-10T04:42:54;12.70;99.90
42261;DHT22;27926;48.062;7.474;2023-05-10T04:45:19;12.70;99.90
42261;DHT22;27926;48.062;7.474;2023-05-10T04:47:43;12.70;99.90
42261;DHT22;27926;48.062;7.474;2023-05-10T04:50:08;12.70;99.90
42261;DHT22;27926;48.062;7.474;2023-05-10T04:52:33;12.70;99.90
42261;DHT22;27926;48.062;7.474;2023-05-10T04:54:58;12.70;99.90
42261;DHT22;27926;48.062;7.474;2023-05-10T04:57:22;12.70;99.90
42261;DHT22;27926;48.062;7.474;2023-05-10T04:59:47;12.70;99.90
42261;DHT22;27926;48.062;7.474;2023-05-10T05:02:11;12.80;99.90
42261;DHT22;27926;48.062;7.474;2023-05-10T05:04:36;12.80;99.90
42261;DHT22;27926;48.062;7.474;2023-05-10T05:07:01;12.80;99.90
42261;DHT22;27926;48.062;7.474;2023-05-10T05:09:25;12.80;99.90
42261;DHT22;27926;48.062;7.474;2023-05-10T05:11:50;12.80;99.90
42261;DHT22;27926;48.062;7.474;2023-05-10T05:14:14;12.80;99.90
42261;DHT22;27926;48.062;7.474;2023-05-10T05:16:39;12.90;99.90
42261;DHT22;27926;48.062;7.474;2023-05-10T05:19:04;12.90;99.90
42261;DHT22;27926;48.062;7.474;2023-05-10T05:21:28;12.90;99.90
42261;DHT22;27926;48.062;7.474;2023-05-10T05:23:53;12.90;99.90
42261;DHT22;27926;48.062;7.474;2023-05-10T05:26:18;12.90;99.90
42261;DHT22;27926;48.062;7.474;2023-05-10T05:28:42;13.00;99.90
42261;DHT22;27926;48.062;7.474;2023-05-10T05:31:07;13.00;99.90
42261;DHT22;27926;48.062;7.474;2023-05-10T05:33:32;13.10;99.90
42261;DHT22;27926;48.062;7.474;2023-05-10T05:35:56;13.20;99.90
42261;DHT22;27926;48.062;7.474;2023-05-10T05:38:21;13.30;99.90
42261;DHT22;27926;48.062;7.474;2023-05-10T05:40:49;13.50;99.90
42261;DHT22;27926;48.062;7.474;2023-05-10T05:43:13;13.60;99.90
42261;DHT22;27926;48.062;7.474;2023-05-10T05:45:38;13.70;99.90
42261;DHT22;27926;48.062;7.474;2023-05-10T05:48:03;13.70;99.90
42261;DHT22;27926;48.062;7.474;2023-05-10T05:50:27;13.60;99.90
42261;DHT22;27926;48.062;7.474;2023-05-10T05:52:52;13.60;99.90
42261;DHT22;27926;48.062;7.474;2023-05-10T05:55:16;13.60;99.90
42261;DHT22;27926;48.062;7.474;2023-05-10T05:57:41;13.60;99.90
42261;DHT22;27926;48.062;7.474;2023-05-10T06:00:07;13.50;99.90
42261;DHT22;27926;48.062;7.474;2023-05-10T06:02:32;13.60;99.90
42261;DHT22;27926;48.062;7.474;2023-05-10T06:04:57;13.70;99.90
42261;DHT22;27926;48.062;7.474;2023-05-10T06:07:21;13.70;99.90
42261;DHT22;27926;48.062;7.474;2023-05-10T06:09:46;13.70;99.90
42261;DHT22;27926;48.062;7.474;2023-05-10T06:12:11;13.80;99.90
42261;DHT22;27926;48.062;7.474;2023-05-10T06:14:36;13.80;99.90
42261;DHT22;27926;48.062;7.474;2023-05-10T06:17:00;13.80;99.90
42261;DHT22;27926;48.062;7.474;2023-05-10T06:19:25;13.90;99.90
42261;DHT22;27926;48.062;7.474;2023-05-10T06:21:50;14.00;99.90
42261;DHT22;27926;48.062;7.474;2023-05-10T06:24:15;14.00;99.90
42261;DHT22;27926;48.062;7.474;2023-05-10T06:26:39;14.10;99.90
42261;DHT22;27926;48.062;7.474;2023-05-10T06:29:04;14.10;99.90
42261;DHT22;27926;48.062;7.474;2023-05-10T06:31:29;14.20;99.90
42261;DHT22;27926;48.062;7.474;2023-05-10T06:33:53;14.30;99.90
42261;DHT22;27926;48.062;7.474;2023-05-10T06:36:18;14.50;99.90
42261;DHT22;27926;48.062;7.474;2023-05-10T06:38:42;14.70;99.90
42261;DHT22;27926;48.062;7.474;2023-05-10T06:41:07;14.90;99.90
42261;DHT22;27926;48.062;7.474;2023-05-10T06:43:32;15.00;99.90
42261;DHT22;27926;48.062;7.474;2023-05-10T06:45:57;15.30;99.90
42261;DHT22;27926;48.062;7.474;2023-05-10T06:48:21;15.50;99.90
42261;DHT22;27926;48.062;7.474;2023-05-10T06:50:46;15.60;99.90
42261;DHT22;27926;48.062;7.474;2023-05-10T06:53:11;15.80;99.90
42261;DHT22;27926;48.062;7.474;2023-05-10T06:55:36;15.90;99.90
42261;DHT22;27926;48.062;7.474;2023-05-10T06:58:00;16.10;99.90
42261;DHT22;27926;48.062;7.474;2023-05-10T07:00:26;16.50;99.90
42261;DHT22;27926;48.062;7.474;2023-05-10T07:02:51;16.80;99.90
42261;DHT22;27926;48.062;7.474;2023-05-10T07:05:16;17.20;99.90
42261;DHT22;27926;48.062;7.474;2023-05-10T07:07:42;18.70;99.90
42261;DHT22;27926;48.062;7.474;2023-05-10T07:10:07;17.70;99.90
42261;DHT22;27926;48.062;7.474;2023-05-10T07:12:32;18.10;99.90
42261;DHT22;27926;48.062;7.474;2023-05-10T07:14:56;18.30;99.90
42261;DHT22;27926;48.062;7.474;2023-05-10T07:17:21;18.60;99.90
42261;DHT22;27926;48.062;7.474;2023-05-10T07:19:46;19.00;99.90
42261;DHT22;27926;48.062;7.474;2023-05-10T07:22:10;19.60;99.90
42261;DHT22;27926;48.062;7.474;2023-05-10T07:24:35;20.20;99.90
42261;DHT22;27926;48.062;7.474;2023-05-10T07:27:00;20.30;99.90
42261;DHT22;27926;48.062;7.474;2023-05-10T07:29:25;20.50;99.90
42261;DHT22;27926;48.062;7.474;2023-05-10T07:31:49;20.60;99.90
42261;DHT22;27926;48.062;7.474;2023-05-10T07:34:14;20.80;99.90
42261;DHT22;27926;48.062;7.474;2023-05-10T07:36:39;20.90;99.90
42261;DHT22;27926;48.062;7.474;2023-05-10T07:39:03;20.80;99.90
42261;DHT22;27926;48.062;7.474;2023-05-10T07:41:28;20.90;99.90
42261;DHT22;27926;48.062;7.474;2023-05-10T07:43:52;20.50;99.90
42261;DHT22;27926;48.062;7.474;2023-05-10T07:46:17;20.40;99.90
42261;DHT22;27926;48.062;7.474;2023-05-10T07:48:43;20.40;99.90
42261;DHT22;27926;48.062;7.474;2023-05-10T07:51:08;20.10;99.90
42261;DHT22;27926;48.062;7.474;2023-05-10T07:53:33;19.40;99.90
42261;DHT22;27926;48.062;7.474;2023-05-10T07:55:58;18.60;99.90
42261;DHT22;27926;48.062;7.474;2023-05-10T07:58:23;18.20;99.90
42261;DHT22;27926;48.062;7.474;2023-05-10T08:00:47;17.80;99.90
42261;DHT22;27926;48.062;7.474;2023-05-10T08:03:13;17.50;99.90
42261;DHT22;27926;48.062;7.474;2023-05-10T08:05:38;17.00;99.90
42261;DHT22;27926;48.062;7.474;2023-05-10T08:08:05;16.70;99.90
42261;DHT22;27926;48.062;7.474;2023-05-10T08:10:30;16.40;99.90
42261;DHT22;27926;48.062;7.474;2023-05-10T08:12:54;16.20;99.90
42261;DHT22;27926;48.062;7.474;2023-05-10T08:15:19;15.90;99.90
42261;DHT22;27926;48.062;7.474;2023-05-10T08:17:43;15.80;99.90
42261;DHT22;27926;48.062;7.474;2023-05-10T08:20:08;15.80;99.90
42261;DHT22;27926;48.062;7.474;2023-05-10T08:22:33;15.70;99.90
42261;DHT22;27926;48.062;7.474;2023-05-10T08:24:58;15.70;99.90
42261;DHT22;27926;48.062;7.474;2023-05-10T08:27:22;15.90;99.90
42261;DHT22;27926;48.062;7.474;2023-05-10T08:29:47;16.00;99.90
42261;DHT22;27926;48.062;7.474;2023-05-10T08:32:11;16.10;99.90
42261;DHT22;27926;48.062;7.474;2023-05-10T08:34:36;16.10;99.90
42261;DHT22;27926;48.062;7.474;2023-05-10T08:37:01;16.10;99.90
42261;DHT22;27926;48.062;7.474;2023-05-10T08:39:25;16.30;99.90
42261;DHT22;27926;48.062;7.474;2023-05-10T08:41:51;16.70;99.90
42261;DHT22;27926;48.062;7.474;2023-05-10T08:44:18;17.00;99.90
42261;DHT22;27926;48.062;7.474;2023-05-10T08:46:46;17.10;99.90
42261;DHT22;27926;48.062;7.474;2023-05-10T08:49:13;17.20;99.90
42261;DHT22;27926;48.062;7.474;2023-05-10T08:51:44;17.40;99.90
42261;DHT22;27926;48.062;7.474;2023-05-10T08:54:11;17.40;99.90
42261;DHT22;27926;48.062;7.474;2023-05-10T08:56:36;17.30;99.90
42261;DHT22;27926;48.062;7.474;2023-05-10T08:59:01;17.10;99.90
42261;DHT22;27926;48.062;7.474;2023-05-10T09:01:26;17.10;99.80
42261;DHT22;27926;48.062;7.474;2023-05-10T09:03:52;17.30;99.90
42261;DHT22;27926;48.062;7.474;2023-05-10T09:06:17;17.50;99.10
42261;DHT22;27926;48.062;7.474;2023-05-10T09:08:42;17.50;99.20
42261;DHT22;27926;48.062;7.474;2023-05-10T09:11:08;17.60;98.60
42261;DHT22;27926;48.062;7.474;2023-05-10T09:13:33;17.70;99.60
42261;DHT22;27926;48.062;7.474;2023-05-10T09:15:58;17.80;99.90
42261;DHT22;27926;48.062;7.474;2023-05-10T09:18:24;17.90;99.20
42261;DHT22;27926;48.062;7.474;2023-05-10T09:20:48;17.90;98.70
42261;DHT22;27926;48.062;7.474;2023-05-10T09:23:13;17.90;97.10
42261;DHT22;27926;48.062;7.474;2023-05-10T09:25:38;17.90;98.00
42261;DHT22;27926;48.062;7.474;2023-05-10T09:28:08;18.00;97.40
42261;DHT22;27926;48.062;7.474;2023-05-10T09:30:33;18.00;99.50
42261;DHT22;27926;48.062;7.474;2023-05-10T09:32:58;18.20;98.30
42261;DHT22;27926;48.062;7.474;2023-05-10T09:35:25;18.30;97.00
42261;DHT22;27926;48.062;7.474;2023-05-10T09:37:55;18.20;96.40
42261;DHT22;27926;48.062;7.474;2023-05-10T09:40:21;18.00;98.00
42261;DHT22;27926;48.062;7.474;2023-05-10T09:43:03;17.90;98.00
42261;DHT22;27926;48.062;7.474;2023-05-10T09:45:30;17.70;98.10
42261;DHT22;27926;48.062;7.474;2023-05-10T09:47:56;18.20;98.70
42261;DHT22;27926;48.062;7.474;2023-05-10T09:50:21;18.40;97.10
42261;DHT22;27926;48.062;7.474;2023-05-10T09:52:57;18.20;97.20
42261;DHT22;27926;48.062;7.474;2023-05-10T09:55:23;18.00;96.90
42261;DHT22;27926;48.062;7.474;2023-05-10T09:57:48;17.70;98.20
42261;DHT22;27926;48.062;7.474;2023-05-10T10:00:20;17.90;98.50
42261;DHT22;27926;48.062;7.474;2023-05-10T10:02:46;17.90;97.00
42261;DHT22;27926;48.062;7.474;2023-05-10T10:05:11;18.00;97.00
42261;DHT22;27926;48.062;7.474;2023-05-10T10:07:36;18.20;96.10
42261;DHT22;27926;48.062;7.474;2023-05-10T10:10:01;18.50;95.80
42261;DHT22;27926;48.062;7.474;2023-05-10T10:12:25;18.80;96.00
42261;DHT22;27926;48.062;7.474;2023-05-10T10:14:51;18.70;95.90
42261;DHT22;27926;48.062;7.474;2023-05-10T10:17:16;18.70;96.00
42261;DHT22;27926;48.062;7.474;2023-05-10T10:19:41;18.90;96.50
42261;DHT22;27926;48.062;7.474;2023-05-10T10:22:06;18.90;97.50
42261;DHT22;27926;48.062;7.474;2023-05-10T10:24:30;18.80;96.80
42261;DHT22;27926;48.062;7.474;2023-05-10T10:26:59;18.80;96.30
42261;DHT22;27926;48.062;7.474;2023-05-10T10:29:34;18.90;95.50
42261;DHT22;27926;48.062;7.474;2023-05-10T10:34:48;19.30;95.90
42261;DHT22;27926;48.062;7.474;2023-05-10T10:37:12;19.40;96.10
42261;DHT22;27926;48.062;7.474;2023-05-10T10:39:37;19.50;96.60
42261;DHT22;27926;48.062;7.474;2023-05-10T10:42:02;19.50;94.30
42261;DHT22;27926;48.062;7.474;2023-05-10T10:47:05;20.20;96.00
42261;DHT22;27926;48.062;7.474;2023-05-10T10:57:21;20.70;94.80
42261;DHT22;27926;48.062;7.474;2023-05-10T10:59:50;20.40;94.60
42261;DHT22;27926;48.062;7.474;2023-05-10T11:02:46;20.10;94.30
42261;DHT22;27926;48.062;7.474;2023-05-10T11:07:58;19.20;95.20
42261;DHT22;27926;48.062;7.474;2023-05-10T11:10:25;18.90;95.40
42261;DHT22;27926;48.062;7.474;2023-05-10T11:13:06;18.60;96.50
42261;DHT22;27926;48.062;7.474;2023-05-10T11:15:32;18.30;96.20
42261;DHT22;27926;48.062;7.474;2023-05-10T11:17:57;18.10;97.20
42261;DHT22;27926;48.062;7.474;2023-05-10T11:20:22;18.00;97.40
42261;DHT22;27926;48.062;7.474;2023-05-10T11:22:52;18.10;98.10
42261;DHT22;27926;48.062;7.474;2023-05-10T11:25:18;18.30;97.90
42261;DHT22;27926;48.062;7.474;2023-05-10T11:27:42;18.80;97.80
42261;DHT22;27926;48.062;7.474;2023-05-10T11:30:09;19.30;96.60
42261;DHT22;27926;48.062;7.474;2023-05-10T11:32:39;19.70;96.30
42261;DHT22;27926;48.062;7.474;2023-05-10T11:35:11;19.90;96.40
42261;DHT22;27926;48.062;7.474;2023-05-10T11:37:36;19.90;94.00
42261;DHT22;27926;48.062;7.474;2023-05-10T11:40:01;19.60;93.80
42261;DHT22;27926;48.062;7.474;2023-05-10T11:42:28;19.50;95.30
42261;DHT22;27926;48.062;7.474;2023-05-10T11:44:52;19.60;95.30
42261;DHT22;27926;48.062;7.474;2023-05-10T11:47:17;19.80;93.80
42261;DHT22;27926;48.062;7.474;2023-05-10T11:49:45;20.00;93.90
42261;DHT22;27926;48.062;7.474;2023-05-10T11:52:10;20.00;93.40
42261;DHT22;27926;48.062;7.474;2023-05-10T11:54:53;19.70;93.80
42261;DHT22;27926;48.062;7.474;2023-05-10T11:57:19;19.90;95.80
42261;DHT22;27926;48.062;7.474;2023-05-10T11:59:44;19.90;93.80
42261;DHT22;27926;48.062;7.474;2023-05-10T12:02:10;19.70;94.30
42261;DHT22;27926;48.062;7.474;2023-05-10T12:04:35;19.60;95.30
42261;DHT22;27926;48.062;7.474;2023-05-10T12:06:59;19.80;95.60
42261;DHT22;27926;48.062;7.474;2023-05-10T12:09:24;20.40;95.30
42261;DHT22;27926;48.062;7.474;2023-05-10T12:11:48;20.90;94.70
42261;DHT22;27926;48.062;7.474;2023-05-10T12:14:13;20.70;92.60
42261;DHT22;27926;48.062;7.474;2023-05-10T12:16:39;20.50;92.90
42261;DHT22;27926;48.062;7.474;2023-05-10T12:19:04;20.20;92.70
42261;DHT22;27926;48.062;7.474;2023-05-10T12:21:29;19.90;92.80
42261;DHT22;27926;48.062;7.474;2023-05-10T12:24:03;19.60;93.50
42261;DHT22;27926;48.062;7.474;2023-05-10T12:26:28;19.30;94.30
42261;DHT22;27926;48.062;7.474;2023-05-10T12:28:54;19.00;93.90
42261;DHT22;27926;48.062;7.474;2023-05-10T12:31:18;18.60;96.10
42261;DHT22;27926;48.062;7.474;2023-05-10T12:33:44;18.40;97.20
42261;DHT22;27926;48.062;7.474;2023-05-10T12:36:11;18.10;96.60
42261;DHT22;27926;48.062;7.474;2023-05-10T12:38:37;18.10;97.90
42261;DHT22;27926;48.062;7.474;2023-05-10T12:41:07;17.90;97.40
42261;DHT22;27926;48.062;7.474;2023-05-10T12:43:32;17.80;96.00
42261;DHT22;27926;48.062;7.474;2023-05-10T12:45:57;17.50;97.40
42261;DHT22;27926;48.062;7.474;2023-05-10T12:48:22;17.50;97.90
42261;DHT22;27926;48.062;7.474;2023-05-10T12:50:50;17.40;97.70
42261;DHT22;27926;48.062;7.474;2023-05-10T12:53:15;17.40;98.30
42261;DHT22;27926;48.062;7.474;2023-05-10T12:55:39;17.50;98.00
42261;DHT22;27926;48.062;7.474;2023-05-10T12:58:04;17.50;97.40
42261;DHT22;27926;48.062;7.474;2023-05-10T13:00:29;17.80;97.50
42261;DHT22;27926;48.062;7.474;2023-05-10T13:02:54;18.00;96.50
42261;DHT22;27926;48.062;7.474;2023-05-10T13:05:18;18.20;97.10
42261;DHT22;27926;48.062;7.474;2023-05-10T13:07:43;18.40;98.40
42261;DHT22;27926;48.062;7.474;2023-05-10T13:10:08;18.40;99.30
42261;DHT22;27926;48.062;7.474;2023-05-10T13:12:32;18.50;99.90
42261;DHT22;27926;48.062;7.474;2023-05-10T13:14:57;18.80;99.00
42261;DHT22;27926;48.062;7.474;2023-05-10T13:17:22;18.70;98.70
42261;DHT22;27926;48.062;7.474;2023-05-10T13:19:47;18.80;98.20
42261;DHT22;27926;48.062;7.474;2023-05-10T13:22:11;19.20;96.90
42261;DHT22;27926;48.062;7.474;2023-05-10T13:24:36;19.50;96.50
42261;DHT22;27926;48.062;7.474;2023-05-10T13:27:00;19.70;95.80
42261;DHT22;27926;48.062;7.474;2023-05-10T13:29:25;20.00;97.30
42261;DHT22;27926;48.062;7.474;2023-05-10T13:31:50;20.30;96.20
42261;DHT22;27926;48.062;7.474;2023-05-10T13:34:14;20.60;95.60
42261;DHT22;27926;48.062;7.474;2023-05-10T13:36:39;20.80;95.30
42261;DHT22;27926;48.062;7.474;2023-05-10T13:39:03;21.00;95.10
42261;DHT22;27926;48.062;7.474;2023-05-10T13:41:29;21.30;95.20
42261;DHT22;27926;48.062;7.474;2023-05-10T13:43:54;21.20;94.50
42261;DHT22;27926;48.062;7.474;2023-05-10T13:46:18;21.20;95.10
42261;DHT22;27926;48.062;7.474;2023-05-10T13:48:43;21.20;93.90
42261;DHT22;27926;48.062;7.474;2023-05-10T13:51:08;21.10;93.60
42261;DHT22;27926;48.062;7.474;2023-05-10T13:53:32;21.00;93.20
42261;DHT22;27926;48.062;7.474;2023-05-10T13:55:57;20.70;93.50
42261;DHT22;27926;48.062;7.474;2023-05-10T13:58:22;20.80;93.50
42261;DHT22;27926;48.062;7.474;2023-05-10T14:00:47;20.90;94.20
42261;DHT22;27926;48.062;7.474;2023-05-10T14:03:12;20.80;93.40
42261;DHT22;27926;48.062;7.474;2023-05-10T14:05:37;20.60;94.10
42261;DHT22;27926;48.062;7.474;2023-05-10T14:08:01;20.20;95.30
42261;DHT22;27926;48.062;7.474;2023-05-10T14:10:26;19.70;96.40
42261;DHT22;27926;48.062;7.474;2023-05-10T14:12:50;19.50;96.80
42261;DHT22;27926;48.062;7.474;2023-05-10T14:15:15;19.50;97.20
42261;DHT22;27926;48.062;7.474;2023-05-10T14:17:40;19.40;96.50
42261;DHT22;27926;48.062;7.474;2023-05-10T14:20:05;19.20;96.20
42261;DHT22;27926;48.062;7.474;2023-05-10T14:22:30;18.90;96.50
42261;DHT22;27926;48.062;7.474;2023-05-10T14:24:54;18.60;96.90
42261;DHT22;27926;48.062;7.474;2023-05-10T14:27:19;18.40;97.60
42261;DHT22;27926;48.062;7.474;2023-05-10T14:29:44;18.30;97.90
42261;DHT22;27926;48.062;7.474;2023-05-10T14:32:08;18.10;95.90
42261;DHT22;27926;48.062;7.474;2023-05-10T14:34:33;17.90;95.90
42261;DHT22;27926;48.062;7.474;2023-05-10T14:36:57;17.70;96.40
42261;DHT22;27926;48.062;7.474;2023-05-10T14:39:22;17.50;96.50
42261;DHT22;27926;48.062;7.474;2023-05-10T14:41:47;17.30;97.60
42261;DHT22;27926;48.062;7.474;2023-05-10T14:44:12;17.20;99.60
42261;DHT22;27926;48.062;7.474;2023-05-10T14:46:36;17.20;99.90
42261;DHT22;27926;48.062;7.474;2023-05-10T14:49:01;17.40;99.90
42261;DHT22;27926;48.062;7.474;2023-05-10T14:51:26;17.70;99.60
42261;DHT22;27926;48.062;7.474;2023-05-10T14:53:50;18.20;99.90
42261;DHT22;27926;48.062;7.474;2023-05-10T14:56:15;18.50;97.80
42261;DHT22;27926;48.062;7.474;2023-05-10T14:58:40;18.60;98.10
42261;DHT22;27926;48.062;7.474;2023-05-10T15:01:04;18.90;98.80
42261;DHT22;27926;48.062;7.474;2023-05-10T15:03:29;19.10;97.20
42261;DHT22;27926;48.062;7.474;2023-05-10T15:05:54;19.30;96.80
42261;DHT22;27926;48.062;7.474;2023-05-10T15:08:20;19.50;97.10
42261;DHT22;27926;48.062;7.474;2023-05-10T15:10:45;19.60;96.70
42261;DHT22;27926;48.062;7.474;2023-05-10T15:13:09;19.60;95.40
42261;DHT22;27926;48.062;7.474;2023-05-10T15:15:34;19.20;95.60
42261;DHT22;27926;48.062;7.474;2023-05-10T15:17:58;19.00;96.30
42261;DHT22;27926;48.062;7.474;2023-05-10T15:20:23;18.70;96.50
42261;DHT22;27926;48.062;7.474;2023-05-10T15:22:48;18.30;96.30
42261;DHT22;27926;48.062;7.474;2023-05-10T15:25:13;18.00;97.30
42261;DHT22;27926;48.062;7.474;2023-05-10T15:27:38;17.40;98.40
42261;DHT22;27926;48.062;7.474;2023-05-10T15:30:03;16.90;98.70
42261;DHT22;27926;48.062;7.474;2023-05-10T15:32:28;16.70;99.50
42261;DHT22;27926;48.062;7.474;2023-05-10T15:34:53;16.50;99.30
42261;DHT22;27926;48.062;7.474;2023-05-10T15:37:18;16.30;99.90
42261;DHT22;27926;48.062;7.474;2023-05-10T15:39:43;16.40;99.90
42261;DHT22;27926;48.062;7.474;2023-05-10T15:42:08;16.30;99.90
42261;DHT22;27926;48.062;7.474;2023-05-10T15:44:33;16.40;99.90
42261;DHT22;27926;48.062;7.474;2023-05-10T15:46:59;16.60;99.90
42261;DHT22;27926;48.062;7.474;2023-05-10T15:49:23;16.70;99.90
42261;DHT22;27926;48.062;7.474;2023-05-10T15:51:48;16.80;99.90